Time,TemperatureF,DewpointF,PressureIn,WindDirection,WindDirectionDegrees,WindSpeedMPH,WindSpeedGustMPH,Humidity,HourlyPrecipIn,Conditions,Clouds,dailyrainin,SoftwareType,DateUTC
2013-02-27 00:00:00,35.6,34.6,29.79,NNE,23,7.6,7.6,96,2.60,,,0.00,WUHU216HW,2013-02-27 05:00:00,
2013-02-27 00:05:00,35.3,34.2,29.78,NNE,23,5.4,7.6,96,2.60,,,0.00,WUHU216HW,2013-02-27 05:05:00,
2013-02-27 00:10:00,35.3,34.2,29.78,NNE,23,4.3,6.3,96,2.60,,,0.00,WUHU216HW,2013-02-27 05:10:00,
2013-02-27 00:15:00,35.1,33.8,29.78,North,0,6.0,6.3,95,2.59,,,0.00,WUHU216HW,2013-02-27 05:15:00,
2013-02-27 00:20:00,35.1,33.8,29.78,NNE,23,2.7,6.0,95,2.60,,,0.00,WUHU216HW,2013-02-27 05:20:00,
2013-02-27 00:25:00,35.1,33.8,29.78,NNE,23,2.7,6.0,95,2.60,,,0.00,WUHU216HW,2013-02-27 05:25:00,
2013-02-27 00:30:00,35.1,33.8,29.78,North,0,4.3,4.7,95,2.60,,,0.00,WUHU216HW,2013-02-27 05:30:00,
2013-02-27 00:35:00,35.1,33.8,29.78,North,0,5.4,6.3,95,2.60,,,0.00,WUHU216HW,2013-02-27 05:35:00,
2013-02-27 00:40:00,35.1,33.8,29.77,NE,45,4.7,6.3,95,2.60,,,0.00,WUHU216HW,2013-02-27 05:40:00,
2013-02-27 00:45:00,35.1,33.8,29.77,NNE,23,4.3,6.5,95,2.60,,,0.00,WUHU216HW,2013-02-27 05:45:00,
2013-02-27 00:50:00,35.1,33.8,29.77,NNE,23,4.7,6.5,95,2.60,,,0.00,WUHU216HW,2013-02-27 05:50:00,
2013-02-27 00:55:00,35.1,33.8,29.77,North,0,4.3,7.2,95,2.60,,,0.00,WUHU216HW,2013-02-27 05:55:00,
2013-02-27 01:00:00,35.1,33.8,29.77,NNE,23,2.0,7.2,95,2.60,,,0.00,WUHU216HW,2013-02-27 06:00:00,
2013-02-27 01:05:00,34.9,33.6,29.76,North,0,3.4,6.5,95,2.60,,,0.00,WUHU216HW,2013-02-27 06:05:00,
2013-02-27 01:10:00,34.9,33.6,29.76,North,0,2.5,6.0,95,2.60,,,0.00,WUHU216HW,2013-02-27 06:10:00,
2013-02-27 01:15:00,34.6,33.2,29.76,NNW,338,0.4,6.0,95,2.60,,,0.00,WUHU216HW,2013-02-27 06:15:00,
2013-02-27 01:20:00,34.2,32.9,29.76,NNE,23,3.1,6.0,95,2.60,,,0.00,WUHU216HW,2013-02-27 06:20:00,
2013-02-27 01:25:00,34.0,32.7,29.75,NE,45,4.3,9.2,95,2.60,,,0.00,WUHU216HW,2013-02-27 06:25:00,
2013-02-27 01:30:00,33.8,32.5,29.75,North,0,4.5,9.2,95,2.60,,,0.00,WUHU216HW,2013-02-27 06:30:00,
2013-02-27 01:35:00,33.8,32.5,29.75,NNW,338,0.0,7.6,95,2.60,,,0.00,WUHU216HW,2013-02-27 06:35:00,
2013-02-27 01:40:00,33.8,32.5,29.75,North,0,3.6,7.6,95,2.60,,,0.00,WUHU216HW,2013-02-27 06:40:00,
2013-02-27 01:45:00,33.7,32.3,29.75,NW,315,0.4,4.7,95,2.60,,,0.00,WUHU216HW,2013-02-27 06:45:00,
2013-02-27 01:50:00,33.7,32.3,29.75,NNW,338,1.6,4.7,95,2.60,,,0.00,WUHU216HW,2013-02-27 06:50:00,
2013-02-27 01:55:00,33.5,32.1,29.74,North,0,1.8,4.0,95,2.60,,,0.00,WUHU216HW,2013-02-27 06:55:00,
2013-02-27 02:00:00,33.1,31.8,29.74,NNE,23,4.7,5.4,95,2.60,,,0.00,WUHU216HW,2013-02-27 07:00:00,
2013-02-27 02:05:00,33.1,31.8,29.74,NNW,338,0.7,5.4,95,2.60,,,0.00,WUHU216HW,2013-02-27 07:05:00,
2013-02-27 02:10:00,32.9,31.9,29.74,NNW,338,0.9,4.7,96,2.60,,,0.00,WUHU216HW,2013-02-27 07:10:00,
2013-02-27 02:15:00,32.9,31.9,29.74,NNE,23,2.0,2.0,96,2.60,,,0.00,WUHU216HW,2013-02-27 07:15:00,
2013-02-27 02:20:00,32.9,31.9,29.73,North,0,2.2,4.7,96,2.59,,,0.00,WUHU216HW,2013-02-27 07:20:00,
2013-02-27 02:25:00,32.8,31.7,29.74,NNW,338,0.9,4.7,96,2.59,,,0.00,WUHU216HW,2013-02-27 07:25:00,
2013-02-27 02:30:00,32.8,31.7,29.74,North,0,0.4,2.2,96,2.59,,,0.00,WUHU216HW,2013-02-27 07:30:00,
2013-02-27 02:35:00,32.8,31.7,29.74,North,0,0.2,4.9,96,2.59,,,0.00,WUHU216HW,2013-02-27 07:35:00,
2013-02-27 02:40:00,32.9,31.9,29.74,NNE,23,4.0,4.9,96,2.59,,,0.00,WUHU216HW,2013-02-27 07:40:00,
2013-02-27 02:45:00,32.8,31.7,29.74,West,270,1.8,4.7,96,2.59,,,0.00,WUHU216HW,2013-02-27 07:45:00,
2013-02-27 02:50:00,32.8,31.7,29.74,WNW,293,0.4,3.6,96,2.59,,,0.00,WUHU216HW,2013-02-27 07:50:00,
2013-02-27 02:55:00,32.9,31.9,29.74,NW,315,1.8,2.5,96,2.59,,,0.00,WUHU216HW,2013-02-27 07:55:00,
2013-02-27 03:00:00,32.9,31.9,29.74,WNW,293,1.6,2.9,96,2.59,,,0.00,WUHU216HW,2013-02-27 08:00:00,
2013-02-27 03:05:00,32.9,31.9,29.74,WNW,293,2.9,4.0,96,2.59,,,0.00,WUHU216HW,2013-02-27 08:05:00,
2013-02-27 03:10:00,32.9,31.9,29.75,NW,315,1.8,4.0,96,2.59,,,0.00,WUHU216HW,2013-02-27 08:10:00,
2013-02-27 03:15:00,32.9,31.9,29.74,NW,315,1.3,3.8,96,2.59,,,0.00,WUHU216HW,2013-02-27 08:15:00,
2013-02-27 04:37:00,32.9,31.9,29.73,North,0,0.0,0.0,96,2.59,,,0.00,WUHU216HW,2013-02-27 09:37:00,
2013-02-27 04:42:00,32.9,31.9,29.74,NNW,338,0.9,2.5,96,2.59,,,0.00,WUHU216HW,2013-02-27 09:42:00,
2013-02-27 04:47:00,32.9,31.9,29.74,NNW,338,0.2,2.5,96,2.59,,,0.00,WUHU216HW,2013-02-27 09:47:00,
2013-02-27 04:52:00,32.9,31.9,29.73,North,0,0.7,3.1,96,2.59,,,0.00,WUHU216HW,2013-02-27 09:52:00,
2013-02-27 04:57:00,33.1,32.0,29.74,NNW,338,1.6,3.1,96,2.59,,,0.00,WUHU216HW,2013-02-27 09:57:00,
2013-02-27 05:02:00,32.9,31.9,29.73,North,0,0.4,2.9,96,2.59,,,0.00,WUHU216HW,2013-02-27 10:02:00,
2013-02-27 05:07:00,33.1,32.0,29.74,NNW,338,1.3,3.8,96,2.59,,,0.00,WUHU216HW,2013-02-27 10:07:00,
2013-02-27 05:12:00,33.1,32.0,29.74,NNW,338,1.3,3.8,96,2.59,,,0.00,WUHU216HW,2013-02-27 10:12:00,
2013-02-27 06:00:00,32.9,31.9,29.75,South,180,1.8,1.8,96,2.59,,,0.00,WUHU216HW,2013-02-27 11:00:00,
2013-02-27 06:05:00,32.9,31.9,29.75,South,180,1.8,1.8,96,2.59,,,0.00,WUHU216HW,2013-02-27 11:05:00,
2013-02-27 07:00:00,34.2,33.1,29.76,SW,225,1.3,1.3,96,2.60,,,0.00,WUHU216HW,2013-02-27 12:00:00,
2013-02-27 07:05:00,34.2,33.1,29.76,SW,225,1.3,1.3,96,2.60,,,0.00,WUHU216HW,2013-02-27 12:05:00,
2013-02-27 08:00:00,35.1,34.0,29.78,ESE,113,2.5,2.5,96,2.59,,,0.00,WUHU216HW,2013-02-27 13:00:00,
2013-02-27 08:05:00,35.3,34.5,29.78,NE,45,4.7,4.7,97,2.59,,,0.00,WUHU216HW,2013-02-27 13:05:00,
2013-02-27 08:10:00,35.3,34.5,29.78,SW,225,1.6,4.7,97,2.59,,,0.00,WUHU216HW,2013-02-27 13:10:00,
2013-02-27 08:15:00,35.3,34.5,29.78,SW,225,1.6,1.6,97,2.59,,,0.00,WUHU216HW,2013-02-27 13:15:00,
2013-02-27 09:00:00,37.3,36.5,29.80,North,0,1.8,1.8,97,2.59,,,0.00,WUHU216HW,2013-02-27 14:00:00,
2013-02-27 09:05:00,37.3,36.5,29.80,North,0,1.8,1.8,97,2.59,,,0.00,WUHU216HW,2013-02-27 14:05:00,
2013-02-27 10:00:00,39.8,38.2,29.81,North,0,1.6,1.6,94,2.59,,,0.00,WUHU216HW,2013-02-27 15:00:00,
2013-02-27 10:05:00,40.0,38.3,29.81,South,180,0.4,4.7,94,2.59,,,0.00,WUHU216HW,2013-02-27 15:05:00,
2013-02-27 10:10:00,40.3,39.0,29.81,NW,315,1.3,4.7,95,2.59,,,0.00,WUHU216HW,2013-02-27 15:10:00,
2013-02-27 10:15:00,40.5,38.6,29.81,WSW,248,2.7,4.5,93,2.59,,,0.00,WUHU216HW,2013-02-27 15:15:00,
2013-02-27 10:20:00,40.7,38.8,29.81,WNW,293,0.7,7.8,93,2.59,,,0.00,WUHU216HW,2013-02-27 15:20:00,
2013-02-27 10:25:00,40.9,38.4,29.81,SSE,158,2.9,7.8,91,2.59,,,0.00,WUHU216HW,2013-02-27 15:25:00,
2013-02-27 10:30:00,41.0,38.9,29.81,NW,315,2.2,6.7,92,2.59,,,0.00,WUHU216HW,2013-02-27 15:30:00,
2013-02-27 10:35:00,41.4,38.1,29.81,WNW,293,2.5,6.7,88,2.59,,,0.00,WUHU216HW,2013-02-27 15:35:00,
2013-02-27 10:40:00,41.8,38.8,29.81,WNW,293,5.4,8.5,89,2.59,,,0.00,WUHU216HW,2013-02-27 15:40:00,
2013-02-27 10:45:00,41.8,38.2,29.81,SW,225,1.1,8.5,87,2.59,,,0.00,WUHU216HW,2013-02-27 15:45:00,
2013-02-27 10:50:00,42.1,38.2,29.81,NNW,338,2.7,6.9,86,2.59,,,0.00,WUHU216HW,2013-02-27 15:50:00,
2013-02-27 10:55:00,42.1,37.9,29.81,ESE,113,2.0,8.3,85,2.59,,,0.00,WUHU216HW,2013-02-27 15:55:00,
2013-02-27 11:00:00,42.5,38.0,29.81,ESE,113,1.8,8.3,84,0.00,,,0.00,WUHU216HW,2013-02-27 16:00:00,
2013-02-27 11:05:00,42.7,37.8,29.81,West,270,1.8,7.6,83,2.59,,,0.00,WUHU216HW,2013-02-27 16:05:00,
2013-02-27 11:10:00,43.2,38.7,29.81,WSW,248,6.5,6.7,84,2.59,,,0.00,WUHU216HW,2013-02-27 16:10:00,
2013-02-27 19:49:00,40.5,30.0,29.87,West,270,0.4,0.4,66,2.59,,,0.00,WUHU216HW,2013-02-28 00:49:00,
2013-02-27 19:54:00,40.5,30.0,29.87,SE,135,0.4,0.4,66,2.59,,,0.00,WUHU216HW,2013-02-28 00:54:00,
2013-02-27 19:59:00,40.5,30.0,29.87,ESE,113,0.4,0.9,66,2.59,,,0.00,WUHU216HW,2013-02-28 00:59:00,
2013-02-27 20:04:00,40.5,30.0,29.87,SW,225,0.4,3.8,66,2.59,,,0.00,WUHU216HW,2013-02-28 01:04:00,
2013-02-27 20:09:00,40.5,30.0,29.87,SE,135,0.4,3.8,66,2.59,,,0.00,WUHU216HW,2013-02-28 01:09:00,
2013-02-27 20:14:00,40.5,30.0,29.87,North,0,1.1,1.8,66,2.59,,,0.00,WUHU216HW,2013-02-28 01:14:00,
2013-02-27 20:19:00,40.5,30.0,29.87,SW,225,1.3,2.9,66,2.59,,,0.00,WUHU216HW,2013-02-28 01:19:00,
2013-02-27 20:24:00,40.5,30.0,29.86,SSE,158,0.4,2.9,66,2.59,,,0.00,WUHU216HW,2013-02-28 01:24:00,
2013-02-27 20:29:00,40.3,29.8,29.87,SW,225,1.8,4.7,66,2.59,,,0.00,WUHU216HW,2013-02-28 01:29:00,
2013-02-27 20:34:00,40.5,29.6,29.86,SE,135,0.2,4.7,65,2.59,,,0.00,WUHU216HW,2013-02-28 01:34:00,
2013-02-27 20:39:00,40.3,29.8,29.86,SE,135,0.7,4.0,66,2.59,,,0.00,WUHU216HW,2013-02-28 01:39:00,
2013-02-27 20:44:00,40.3,29.4,29.86,WSW,248,0.4,1.1,65,2.59,,,0.00,WUHU216HW,2013-02-28 01:44:00,
2013-02-27 20:49:00,40.3,29.4,29.86,SSW,203,0.2,4.3,65,2.59,,,0.00,WUHU216HW,2013-02-28 01:49:00,
2013-02-27 20:54:00,40.3,29.8,29.86,WNW,293,0.4,4.3,66,2.59,,,0.00,WUHU216HW,2013-02-28 01:54:00,
2013-02-27 20:59:00,40.3,29.8,29.86,SW,225,0.2,1.8,66,2.59,,,0.00,WUHU216HW,2013-02-28 01:59:00,
2013-02-27 21:04:00,40.3,29.8,29.86,NW,315,0.4,1.8,66,2.59,,,0.00,WUHU216HW,2013-02-28 02:04:00,
2013-02-27 21:09:00,40.3,29.8,29.86,East,90,0.9,3.1,66,2.59,,,0.00,WUHU216HW,2013-02-28 02:09:00,
2013-02-27 21:14:00,40.3,29.8,29.85,SSW,203,0.2,3.1,66,2.59,,,0.00,WUHU216HW,2013-02-28 02:14:00,
2013-02-27 21:19:00,40.3,29.8,29.85,SSW,203,0.4,1.6,66,2.59,,,0.00,WUHU216HW,2013-02-28 02:19:00,
2013-02-27 21:24:00,40.1,29.6,29.85,SW,225,0.4,1.6,66,2.59,,,0.00,WUHU216HW,2013-02-28 02:24:00,
2013-02-27 21:29:00,40.1,30.0,29.85,SW,225,0.0,2.0,67,2.59,,,0.00,WUHU216HW,2013-02-28 02:29:00,
2013-02-27 21:35:00,40.1,30.0,29.85,SW,225,0.0,2.0,67,2.59,,,0.00,WUHU216HW,2013-02-28 02:35:00,
2013-02-27 21:40:00,40.0,29.8,29.84,SSE,158,1.1,1.8,67,2.59,,,0.00,WUHU216HW,2013-02-28 02:40:00,
2013-02-27 21:45:00,40.0,29.4,29.84,SSE,158,1.1,1.8,66,2.59,,,0.00,WUHU216HW,2013-02-28 02:45:00,
2013-02-27 21:50:00,39.8,29.6,29.83,SSE,158,0.7,1.6,67,2.59,,,0.00,WUHU216HW,2013-02-28 02:50:00,
2013-02-27 21:55:00,39.6,29.4,29.83,SE,135,1.3,1.8,67,2.59,,,0.00,WUHU216HW,2013-02-28 02:55:00,
2013-02-27 22:00:00,39.6,29.4,29.84,SSW,203,1.1,1.8,67,2.59,,,0.00,WUHU216HW,2013-02-28 03:00:00,
2013-02-27 22:05:00,39.4,29.3,29.84,SSE,158,0.4,1.8,67,2.59,,,0.00,WUHU216HW,2013-02-28 03:05:00,
2013-02-27 22:10:00,39.4,29.3,29.84,South,180,1.8,1.8,67,2.59,,,0.00,WUHU216HW,2013-02-28 03:10:00,
2013-02-27 22:15:00,39.4,29.3,29.84,South,180,0.4,1.8,67,2.59,,,0.00,WUHU216HW,2013-02-28 03:15:00,
2013-02-27 22:20:00,39.6,29.4,29.84,SSW,203,1.1,1.8,67,2.59,,,0.00,WUHU216HW,2013-02-28 03:20:00,
2013-02-27 22:25:00,39.6,29.4,29.84,SSW,203,1.3,1.8,67,2.59,,,0.00,WUHU216HW,2013-02-28 03:25:00,
2013-02-27 22:30:00,39.6,29.9,29.84,SSE,158,1.1,2.5,68,2.59,,,0.00,WUHU216HW,2013-02-28 03:30:00,
2013-02-27 22:35:00,39.4,29.7,29.84,SSW,203,0.0,2.5,68,2.59,,,0.00,WUHU216HW,2013-02-28 03:35:00,
2013-02-27 22:40:00,39.4,29.7,29.83,SW,225,0.0,1.3,68,2.59,,,0.00,WUHU216HW,2013-02-28 03:40:00,
2013-02-27 22:45:00,39.4,29.7,29.84,South,180,1.1,1.1,68,2.59,,,0.00,WUHU216HW,2013-02-28 03:45:00,
2013-02-27 22:50:00,39.4,29.7,29.84,SSW,203,1.8,1.8,68,2.59,,,0.00,WUHU216HW,2013-02-28 03:50:00,
2013-02-27 22:55:00,39.4,29.7,29.84,SW,225,0.0,2.0,68,2.59,,,0.00,WUHU216HW,2013-02-28 03:55:00,
2013-02-27 23:00:00,39.4,29.7,29.84,South,180,1.8,2.0,68,2.59,,,0.00,WUHU216HW,2013-02-28 04:00:00,
2013-02-27 23:05:00,39.4,29.7,29.84,SSW,203,0.0,2.0,68,2.59,,,0.00,WUHU216HW,2013-02-28 04:05:00,
2013-02-27 23:10:00,39.2,29.9,29.84,SSE,158,0.7,1.8,69,2.59,,,0.00,WUHU216HW,2013-02-28 04:10:00,
2013-02-27 23:15:00,39.2,29.9,29.84,SE,135,0.4,1.3,69,2.59,,,0.00,WUHU216HW,2013-02-28 04:15:00,
2013-02-27 23:20:00,39.2,30.2,29.84,SE,135,0.0,0.7,70,2.59,,,0.00,WUHU216HW,2013-02-28 04:20:00,
2013-02-27 23:25:00,39.2,30.2,29.84,SSW,203,0.4,1.8,70,2.59,,,0.00,WUHU216HW,2013-02-28 04:25:00,
2013-02-27 23:30:00,39.1,30.1,29.83,South,180,0.4,2.0,70,2.59,,,0.00,WUHU216HW,2013-02-28 04:30:00,
2013-02-27 23:35:00,39.1,30.4,29.83,NNW,338,0.0,2.5,71,2.59,,,0.00,WUHU216HW,2013-02-28 04:35:00,
2013-02-27 23:40:00,38.9,30.6,29.83,SE,135,0.2,2.5,72,2.59,,,0.00,WUHU216HW,2013-02-28 04:40:00,
2013-02-27 23:45:00,38.7,30.8,29.83,WNW,293,1.1,2.0,73,2.59,,,0.00,WUHU216HW,2013-02-28 04:45:00,
2013-02-27 23:50:00,38.7,30.8,29.83,SSE,158,1.3,1.8,73,2.59,,,0.00,WUHU216HW,2013-02-28 04:50:00,
2013-02-27 23:55:00,38.5,30.6,29.82,SE,135,0.2,1.8,73,2.59,,,0.00,WUHU216HW,2013-02-28 04:55:00,